Historyczne dane pomiarowe

Dodano dane terminowe – wersja testowa.

Dane z okresu 1951-2018

Wersja bazy: 1.27 [2018-11-28, lista zmian], aktualizacja planowana na 2018-12-07

Dane meteo z obszaru Polski uzyskane na podstawie danych udostępnionych przez Instytut Meteorologii i Gospodarki Wodnej – Państwowy Instytut Badawczy.

 

Wybierz Datę:    

       

TemperaturaWilgotnośćWiatrCiśnienieOpadyŚniegCzas trwania zjawisk
 Stacja t tx tn tng RH VA  wxwx mslp ppp RRR   cm mm wxwxwxwxwxwxwx
2015-11-08 12.7 16.6 9.7 4.7 68.8- 2.7----- 0.0------------
2015-11-09 10.1 15.3 3.0 -0.6 85.5- 7.3----- 5.5------------
2015-11-10 12.3 14.7 10.2 9.4 92.0- 8.0----- 0.2------------
2015-11-11 14.3 16.1 13.5 12.5 87.0- 7.7----- 0.0------------
2015-11-12 11.4 13.8 10.2 9.7 81.3- 6.3----- 0.0------------
2015-11-13 7.9 12.2 2.8 0.6 87.3- 6.7----- 2.5------------
2015-11-14 7.7 11.6 6.0 3.5 73.3- 4.7----- 0.1------------
2015-11-15 6.9 8.8 5.1 3.3 95.3- 7.7----- 16.2------------
2015-11-16 7.2 10.1 4.1 1.2 96.5- 7.7----- 2.6------------
2015-11-17 10.4 11.9 8.8 7.2 94.0- 8.0----- 7.4------------
2015-11-18 10.5 13.3 8.9 7.0 89.0- 7.0----- 4.1------------
2015-11-19 10.4 13.7 8.1 6.1 73.8- 4.3----- 0.1------------
2015-11-20 7.4 10.8 5.7 3.7 84.3- 6.7----- 0.9------------
2015-11-21 4.2 6.2 3.3 0.0 93.3- 7.0----- 1.1------------
2015-11-22 1.3 3.5 -0.2 -2.7 93.0- 4.3----- 0.4------------
2015-11-23 -1.1 3.0 -4.2 -7.3 90.3- 4.7----- 0.0------------
2015-11-24 0.4 3.8 -1.2 -2.9 84.8- 2.3----- 0.0------------
2015-11-25 -0.4 2.3 -3.7 -7.3 79.8- 7.0----- 0.1------------
2015-11-26 2.3 4.4 1.1 0.1 91.3- 7.3----- 0.0------------
2015-11-27 3.1 4.4 2.1 0.2 90.3- 8.0----- 0.0------------
2015-11-28 0.6 3.8 -1.9 -5.0 88.3- 6.7----- 0.1------------
2015-11-29 3.3 5.7 0.6 -1.6 84.5- 7.0----- 5.6------------
2015-11-30 5.9 7.7 4.4 2.9 74.8- 5.7----- 4.7------------
2015-12-01 4.6 6.8 2.9 2.0 81.8- 5.3----- 0.8------------
2015-12-02 6.1 9.6 2.3 -0.2 96.8- 8.0----- 2.7------------
2015-12-03 7.5 9.6 6.8 2.9 85.3- 5.7----- 0.1------------
2015-12-04 5.3 9.6 1.4 -1.8 83.3- 5.7----- 0.0------------
2015-12-05 6.1 9.1 3.5 1.1 77.0- 4.7----- 0.0------------
2015-12-06 8.2 11.4 5.8 3.2 68.3- 3.3----- 0.0------------
2015-12-07 9.9 11.4 9.2 7.1 86.3- 7.0----- 0.3------------
193.9 ms

 

Źródłem pochodzenia danych jest Instytut Meteorologii i Gospodarki Wodnej – Państwowy Instytut Badawczy. Dane Instytutu Meteorologii i Gospodarki Wodnej – Państwowego Instytutu Badawczego zostały przetworzone.

Dane źródłowe można odnaleźć na stronie https://dane.imgw.pl